Time;durP1;ratioP1;P1;durP2;ratioP2;P2;SDS_P1;SDS_P2;PMS_P1;PMS_P2;Temp;Humidity;BMP_temperature;BMP_pressure;BME280_temperature;BME280_humidity;BME280_pressure;Samples;Min_cycle;Max_cycle;Signal;HPM_P1;HPM_P2
2022/05/09 00:01:21;;;;;;;;;;;8.60;99.90;;;;;;5075660;28;19981;-65
2022/05/09 00:03:47;;;;;;;;;;;8.50;99.90;;;;;;5093669;28;19927;-65
2022/05/09 00:06:12;;;;;;;;;;;8.50;99.90;;;;;;5093508;28;20038;-65
2022/05/09 00:08:39;;;;;;;;;;;8.50;99.90;;;;;;5093853;28;19920;-65
2022/05/09 00:11:06;;;;;;;;;;;8.50;99.90;;;;;;5075497;28;19966;-65
2022/05/09 00:13:31;;;;;;;;;;;8.50;99.90;;;;;;5096969;28;19928;-65
2022/05/09 00:15:57;;;;;;;;;;;8.50;99.90;;;;;;5097583;28;19920;-65
2022/05/09 00:18:22;;;;;;;;;;;8.50;99.90;;;;;;5097328;28;20298;-66
2022/05/09 00:20:48;;;;;;;;;;;8.40;99.90;;;;;;5079322;28;19920;-65
2022/05/09 00:23:13;;;;;;;;;;;8.40;99.90;;;;;;5097330;28;19927;-65
2022/05/09 00:25:39;;;;;;;;;;;8.30;99.90;;;;;;5097089;28;20290;-65
2022/05/09 00:28:04;;;;;;;;;;;8.40;99.90;;;;;;5096961;28;19969;-65
2022/05/09 00:30:30;;;;;;;;;;;8.30;99.90;;;;;;5097077;28;19971;-65
2022/05/09 00:32:56;;;;;;;;;;;8.30;99.90;;;;;;5097011;28;19935;-65
2022/05/09 00:35:21;;;;;;;;;;;8.30;99.90;;;;;;5097235;28;19928;-65
2022/05/09 00:37:47;;;;;;;;;;;8.30;99.90;;;;;;5096920;28;19927;-65
2022/05/09 00:40:15;;;;;;;;;;;8.40;99.90;;;;;;5097176;28;20014;-65
2022/05/09 00:42:45;;;;;;;;;;;8.30;99.90;;;;;;5096801;28;20008;-65
2022/05/09 00:45:11;;;;;;;;;;;8.30;99.90;;;;;;5097085;28;19931;-65
2022/05/09 00:47:37;;;;;;;;;;;8.30;99.90;;;;;;5096893;28;19920;-65
2022/05/09 00:50:04;;;;;;;;;;;8.20;99.90;;;;;;5096847;28;19927;-65
2022/05/09 00:52:44;;;;;;;;;;;8.20;99.90;;;;;;5096826;28;19920;-65
2022/05/09 00:55:16;;;;;;;;;;;8.10;99.90;;;;;;5096356;28;20289;-66
2022/05/09 00:57:44;;;;;;;;;;;8.20;99.90;;;;;;5096748;28;19924;-65
2022/05/09 01:00:14;;;;;;;;;;;8.10;99.90;;;;;;5096753;28;19920;-65
2022/05/09 01:02:43;;;;;;;;;;;8.20;99.90;;;;;;5078616;28;19920;-65
2022/05/09 01:05:09;;;;;;;;;;;8.20;99.90;;;;;;5096538;28;19927;-65
2022/05/09 01:07:35;;;;;;;;;;;8.20;99.90;;;;;;5096227;28;19924;-65
2022/05/09 01:10:00;;;;;;;;;;;8.10;99.90;;;;;;5096511;28;19920;-65
2022/05/09 01:12:30;;;;;;;;;;;8.10;99.90;;;;;;5096478;28;19927;-65
2022/05/09 01:15:10;;;;;;;;;;;8.10;99.90;;;;;;5078226;28;19924;-64
2022/05/09 01:17:39;;;;;;;;;;;8.20;99.90;;;;;;5096132;28;20369;-65
2022/05/09 01:20:06;;;;;;;;;;;8.20;99.90;;;;;;5096238;28;19931;-65
2022/05/09 01:22:36;;;;;;;;;;;8.20;99.90;;;;;;5077840;28;20404;-65
2022/05/09 01:25:03;;;;;;;;;;;8.20;99.90;;;;;;5095909;28;20054;-65
2022/05/09 01:27:29;;;;;;;;;;;8.20;99.90;;;;;;5096243;28;19927;-64
2022/05/09 01:30:04;;;;;;;;;;;8.10;99.90;;;;;;5095985;28;19927;-65
2022/05/09 01:32:37;;;;;;;;;;;8.10;99.90;;;;;;5096000;28;19919;-64
2022/05/09 01:35:07;;;;;;;;;;;8.10;99.90;;;;;;5095560;28;19928;-65
2022/05/09 01:37:34;;;;;;;;;;;8.00;99.90;;;;;;5077695;28;20352;-65
2022/05/09 01:40:00;;;;;;;;;;;8.00;99.90;;;;;;5095656;28;20255;-64
2022/05/09 01:42:25;;;;;;;;;;;8.00;99.90;;;;;;5095920;28;19920;-65
2022/05/09 01:44:51;;;;;;;;;;;8.00;99.90;;;;;;5095986;28;20452;-65
2022/05/09 01:50:01;;;;;;;;;;;8.00;99.90;;;;;;5095530;28;19925;-65
2022/05/09 01:52:26;;;;;;;;;;;8.00;99.90;;;;;;5095503;28;20295;-65
2022/05/09 01:54:52;;;;;;;;;;;8.00;99.90;;;;;;5095615;28;20363;-65
2022/05/09 01:57:18;;;;;;;;;;;8.00;99.90;;;;;;5095676;28;20006;-65
2022/05/09 01:59:44;;;;;;;;;;;8.00;99.90;;;;;;5095597;28;19929;-65
2022/05/09 02:02:11;;;;;;;;;;;8.00;99.90;;;;;;5095341;28;19927;-65
2022/05/09 02:04:40;;;;;;;;;;;7.90;99.90;;;;;;5095314;28;20294;-65
2022/05/09 02:07:09;;;;;;;;;;;7.90;99.90;;;;;;5095304;28;20293;-65
2022/05/09 02:09:39;;;;;;;;;;;8.00;99.90;;;;;;5095372;28;20278;-64
2022/05/09 02:12:04;;;;;;;;;;;7.90;99.90;;;;;;5076854;28;20054;-64
2022/05/09 02:14:30;;;;;;;;;;;7.80;99.90;;;;;;5094790;28;20007;-65
2022/05/09 02:16:55;;;;;;;;;;;7.70;99.90;;;;;;5076093;28;19920;-65
2022/05/09 02:19:21;;;;;;;;;;;7.60;99.90;;;;;;5094847;28;20336;-64
2022/05/09 02:21:46;;;;;;;;;;;7.60;99.90;;;;;;5094869;28;19975;-64
2022/05/09 02:24:12;;;;;;;;;;;7.60;99.90;;;;;;5094957;28;19920;-65
2022/05/09 02:26:37;;;;;;;;;;;7.50;99.90;;;;;;5094992;28;19920;-65
2022/05/09 02:29:03;;;;;;;;;;;7.50;99.90;;;;;;5094748;28;19924;-64
2022/05/09 02:31:30;;;;;;;;;;;7.60;99.90;;;;;;5094821;28;19997;-64
2022/05/09 02:33:56;;;;;;;;;;;7.50;99.90;;;;;;5094442;28;19924;-65
2022/05/09 02:36:21;;;;;;;;;;;7.50;99.90;;;;;;5094221;28;19924;-65
2022/05/09 02:38:47;;;;;;;;;;;7.50;99.90;;;;;;5094169;28;19920;-65
2022/05/09 02:41:12;;;;;;;;;;;7.60;99.90;;;;;;5094369;28;20007;-64
2022/05/09 02:43:38;;;;;;;;;;;7.60;99.90;;;;;;5094031;28;19927;-64
2022/05/09 02:46:03;;;;;;;;;;;7.50;99.90;;;;;;5094322;28;19931;-64
2022/05/09 02:48:30;;;;;;;;;;;7.50;99.90;;;;;;5094375;28;19979;-64
2022/05/09 02:50:56;;;;;;;;;;;7.50;99.90;;;;;;5094452;28;19969;-64
2022/05/09 02:53:21;;;;;;;;;;;7.40;99.90;;;;;;5094430;28;20018;-64
2022/05/09 02:55:47;;;;;;;;;;;7.40;99.90;;;;;;5094551;28;19959;-64
2022/05/09 02:58:13;;;;;;;;;;;7.40;99.90;;;;;;5094364;28;20390;-64
2022/05/09 03:00:38;;;;;;;;;;;7.40;99.90;;;;;;5094371;28;19930;-64
2022/05/09 03:05:48;;;;;;;;;;;7.30;99.90;;;;;;5094047;28;20400;-64
2022/05/09 03:08:14;;;;;;;;;;;7.40;99.90;;;;;;5094144;28;19927;-64
2022/05/09 03:10:40;;;;;;;;;;;7.40;99.90;;;;;;5093759;28;20010;-64
2022/05/09 03:13:06;;;;;;;;;;;7.30;99.90;;;;;;5093823;28;20020;-64
2022/05/09 03:15:36;;;;;;;;;;;7.30;99.90;;;;;;5094157;28;19931;-64
2022/05/09 03:18:02;;;;;;;;;;;7.30;99.90;;;;;;5093939;28;19974;-65
2022/05/09 03:20:28;;;;;;;;;;;7.30;99.90;;;;;;5093862;28;19921;-65
2022/05/09 03:22:54;;;;;;;;;;;7.30;99.90;;;;;;5093526;28;20366;-64
2022/05/09 03:25:20;;;;;;;;;;;7.40;99.90;;;;;;5093988;28;19965;-64
2022/05/09 03:27:45;;;;;;;;;;;7.40;99.90;;;;;;5093722;28;20336;-65
2022/05/09 03:30:12;;;;;;;;;;;7.50;99.90;;;;;;5075527;28;19968;-64
2022/05/09 03:32:39;;;;;;;;;;;7.50;99.90;;;;;;5093776;28;19927;-65
2022/05/09 03:35:06;;;;;;;;;;;7.50;99.90;;;;;;5093164;28;19923;-64
2022/05/09 03:37:31;;;;;;;;;;;7.40;99.90;;;;;;5093800;28;19928;-64
2022/05/09 03:39:57;;;;;;;;;;;7.30;99.90;;;;;;5093702;28;20285;-64
2022/05/09 03:42:23;;;;;;;;;;;7.30;99.90;;;;;;5093626;28;19920;-64
2022/05/09 03:44:48;;;;;;;;;;;7.30;99.90;;;;;;5093801;28;20232;-64
2022/05/09 03:47:14;;;;;;;;;;;7.20;99.90;;;;;;5094998;28;19920;-64
2022/05/09 03:49:40;;;;;;;;;;;7.20;99.90;;;;;;5097903;28;19927;-64
2022/05/09 03:52:05;;;;;;;;;;;7.30;99.90;;;;;;5097952;28;19927;-64
2022/05/09 03:54:31;;;;;;;;;;;7.20;99.90;;;;;;5097546;28;20091;-64
2022/05/09 03:56:56;;;;;;;;;;;7.10;99.90;;;;;;5097103;28;20259;-64
2022/05/09 03:59:22;;;;;;;;;;;7.10;99.90;;;;;;5097154;28;19970;-64
2022/05/09 04:01:47;;;;;;;;;;;7.20;99.90;;;;;;5097465;28;19968;-64
2022/05/09 04:04:13;;;;;;;;;;;7.20;99.90;;;;;;5097146;28;19924;-64
2022/05/09 04:06:38;;;;;;;;;;;7.20;99.90;;;;;;5097234;28;19969;-64
2022/05/09 04:09:05;;;;;;;;;;;7.20;99.90;;;;;;5096875;28;19927;-64
2022/05/09 04:11:31;;;;;;;;;;;7.20;99.90;;;;;;5096874;28;20047;-64
2022/05/09 04:13:56;;;;;;;;;;;7.20;99.90;;;;;;5097128;28;19982;-64
2022/05/09 04:19:06;;;;;;;;;;;7.20;99.90;;;;;;5097089;28;19920;-64
2022/05/09 04:21:32;;;;;;;;;;;7.20;99.90;;;;;;5097190;28;20320;-64
2022/05/09 04:23:58;;;;;;;;;;;7.20;99.90;;;;;;5096813;28;19956;-64
2022/05/09 04:26:24;;;;;;;;;;;7.20;99.90;;;;;;5096955;28;20345;-63
2022/05/09 04:28:50;;;;;;;;;;;7.30;99.90;;;;;;5097134;28;19932;-64
2022/05/09 04:31:15;;;;;;;;;;;7.30;99.90;;;;;;5096947;28;19924;-64
2022/05/09 04:33:41;;;;;;;;;;;7.20;99.90;;;;;;5096231;28;20297;-65
2022/05/09 04:36:07;;;;;;;;;;;7.20;99.90;;;;;;5096890;28;19977;-64
2022/05/09 04:38:33;;;;;;;;;;;7.20;99.90;;;;;;5096722;28;19924;-64
2022/05/09 04:40:58;;;;;;;;;;;7.20;99.90;;;;;;5096644;28;19927;-64
2022/05/09 04:43:26;;;;;;;;;;;7.30;99.90;;;;;;5096814;28;19920;-64
2022/05/09 04:45:52;;;;;;;;;;;7.30;99.90;;;;;;5096645;28;20015;-63
2022/05/09 04:48:19;;;;;;;;;;;7.30;99.90;;;;;;5096525;28;20024;-63
2022/05/09 04:50:44;;;;;;;;;;;7.40;99.90;;;;;;5096397;28;20002;-64
2022/05/09 04:53:10;;;;;;;;;;;7.50;99.90;;;;;;5078104;28;20065;-63
2022/05/09 04:55:36;;;;;;;;;;;7.50;99.90;;;;;;5078056;28;19926;-63
2022/05/09 04:58:01;;;;;;;;;;;7.60;99.90;;;;;;5095552;28;20379;-63
2022/05/09 05:00:27;;;;;;;;;;;7.70;99.90;;;;;;5095929;28;19920;-63
2022/05/09 05:02:54;;;;;;;;;;;7.80;99.90;;;;;;5095961;28;19920;-63
2022/05/09 05:05:20;;;;;;;;;;;7.80;99.90;;;;;;5095847;28;19999;-63
2022/05/09 05:07:45;;;;;;;;;;;7.90;99.90;;;;;;5077518;28;19924;-63
2022/05/09 05:10:11;;;;;;;;;;;8.00;99.90;;;;;;5095787;28;20396;-63
2022/05/09 05:12:37;;;;;;;;;;;8.20;99.90;;;;;;5095692;28;19920;-63
2022/05/09 05:15:03;;;;;;;;;;;8.20;99.90;;;;;;5095822;28;19955;-63
2022/05/09 05:17:28;;;;;;;;;;;8.20;99.90;;;;;;5077217;28;19924;-63
2022/05/09 05:19:54;;;;;;;;;;;8.40;99.90;;;;;;5095245;28;19927;-63
2022/05/09 05:22:19;;;;;;;;;;;8.40;99.90;;;;;;5094958;28;19920;-63
2022/05/09 05:24:45;;;;;;;;;;;8.50;99.90;;;;;;5076819;28;19924;-63
2022/05/09 05:27:14;;;;;;;;;;;8.60;99.90;;;;;;5095188;28;19927;-63
2022/05/09 05:29:41;;;;;;;;;;;8.70;99.90;;;;;;5095191;28;19920;-63
2022/05/09 05:32:14;;;;;;;;;;;8.80;99.90;;;;;;5095167;28;19927;-63
2022/05/09 05:34:39;;;;;;;;;;;8.90;99.90;;;;;;5094631;28;19931;-64
2022/05/09 05:37:05;;;;;;;;;;;9.00;99.90;;;;;;5094788;28;19924;-64
2022/05/09 05:39:34;;;;;;;;;;;9.10;99.90;;;;;;5076804;28;20370;-63
2022/05/09 05:41:59;;;;;;;;;;;9.20;99.90;;;;;;5094783;28;19928;-63
2022/05/09 05:44:25;;;;;;;;;;;9.40;99.90;;;;;;5095111;28;19931;-63
2022/05/09 05:46:50;;;;;;;;;;;9.50;99.90;;;;;;5094930;28;19959;-65
2022/05/09 05:49:16;;;;;;;;;;;9.60;99.90;;;;;;5077022;28;20034;-64
2022/05/09 05:51:41;;;;;;;;;;;9.70;99.90;;;;;;5095222;28;20011;-63
2022/05/09 05:54:07;;;;;;;;;;;9.80;99.90;;;;;;5094408;28;20352;-64
2022/05/09 05:56:36;;;;;;;;;;;10.00;99.90;;;;;;5094151;28;19924;-63
2022/05/09 05:59:01;;;;;;;;;;;10.10;99.90;;;;;;5094413;28;20321;-64
2022/05/09 06:01:27;;;;;;;;;;;10.20;99.90;;;;;;5094369;28;19970;-63
2022/05/09 06:03:52;;;;;;;;;;;10.30;99.90;;;;;;5094733;28;19970;-64
2022/05/09 06:06:18;;;;;;;;;;;10.40;99.90;;;;;;5094617;28;19920;-63
2022/05/09 06:08:44;;;;;;;;;;;10.50;99.90;;;;;;5094585;28;19920;-63
2022/05/09 06:11:10;;;;;;;;;;;10.70;99.90;;;;;;5093582;28;20413;-63
2022/05/09 06:13:36;;;;;;;;;;;10.80;99.90;;;;;;5094079;28;19924;-64
2022/05/09 06:16:01;;;;;;;;;;;10.90;99.90;;;;;;5094276;28;19931;-63
2022/05/09 06:18:27;;;;;;;;;;;11.10;99.90;;;;;;5094315;28;19928;-63
2022/05/09 06:20:52;;;;;;;;;;;11.10;99.90;;;;;;5094542;28;19920;-63
2022/05/09 06:23:18;;;;;;;;;;;11.40;99.90;;;;;;5094221;28;19920;-64
2022/05/09 06:25:46;;;;;;;;;;;11.50;99.90;;;;;;5076026;28;19967;-65
2022/05/09 06:28:12;;;;;;;;;;;11.80;99.90;;;;;;5094153;28;19928;-63
2022/05/09 06:30:38;;;;;;;;;;;12.00;99.90;;;;;;5094216;28;19924;-65
2022/05/09 06:33:04;;;;;;;;;;;12.20;99.90;;;;;;5093859;28;19931;-64
2022/05/09 06:35:29;;;;;;;;;;;12.20;99.90;;;;;;5093641;28;20302;-63
2022/05/09 06:38:03;;;;;;;;;;;12.50;99.90;;;;;;5093850;28;19970;-63
2022/05/09 06:40:29;;;;;;;;;;;12.80;99.90;;;;;;5093996;28;19920;-63
2022/05/09 06:42:56;;;;;;;;;;;13.20;99.90;;;;;;5093819;28;20401;-64
2022/05/09 06:45:23;;;;;;;;;;;13.40;99.90;;;;;;5094541;28;19946;-63
2022/05/09 06:47:49;;;;;;;;;;;13.60;99.90;;;;;;5094163;28;19920;-63
2022/05/09 06:50:16;;;;;;;;;;;13.80;99.90;;;;;;5094029;28;20014;-64
2022/05/09 06:52:42;;;;;;;;;;;13.90;99.90;;;;;;5094129;28;19935;-63
2022/05/09 06:55:08;;;;;;;;;;;14.20;99.90;;;;;;5094448;28;20265;-63
2022/05/09 06:57:37;;;;;;;;;;;14.60;99.90;;;;;;5094267;28;19973;-63
2022/05/09 07:00:04;;;;;;;;;;;14.70;99.90;;;;;;5075534;28;19924;-63
2022/05/09 07:02:31;;;;;;;;;;;14.60;99.90;;;;;;5093567;28;20385;-63
2022/05/09 07:04:56;;;;;;;;;;;14.60;99.90;;;;;;5093829;28;19973;-63
2022/05/09 07:07:22;;;;;;;;;;;14.70;99.90;;;;;;5093997;28;20011;-63
2022/05/09 07:09:47;;;;;;;;;;;15.00;99.90;;;;;;5093537;28;20340;-64
2022/05/09 07:12:13;;;;;;;;;;;15.20;99.90;;;;;;5094241;28;19920;-63
2022/05/09 07:14:38;;;;;;;;;;;15.40;99.90;;;;;;5093937;28;20007;-64
2022/05/09 07:17:05;;;;;;;;;;;16.00;99.90;;;;;;5093797;28;19943;-63
2022/05/09 07:19:31;;;;;;;;;;;16.00;99.90;;;;;;5093853;28;19920;-64
2022/05/09 07:21:57;;;;;;;;;;;16.40;99.90;;;;;;5093455;28;19920;-63
2022/05/09 07:24:22;;;;;;;;;;;16.50;99.90;;;;;;5094049;28;19926;-64
2022/05/09 07:26:48;;;;;;;;;;;16.10;99.90;;;;;;5093736;28;20317;-64
2022/05/09 07:29:14;;;;;;;;;;;16.10;99.90;;;;;;5093874;28;19977;-63
2022/05/09 07:31:39;;;;;;;;;;;16.50;99.90;;;;;;5093972;28;19920;-63
2022/05/09 07:34:05;;;;;;;;;;;16.90;99.90;;;;;;5093530;28;19925;-64
2022/05/09 07:36:31;;;;;;;;;;;16.80;99.90;;;;;;5093916;28;19920;-63
2022/05/09 07:38:56;;;;;;;;;;;17.30;99.90;;;;;;5093684;28;19967;-64
2022/05/09 07:41:22;;;;;;;;;;;17.30;99.90;;;;;;5075726;28;19962;-63
2022/05/09 07:43:47;;;;;;;;;;;17.80;99.90;;;;;;5093337;28;20035;-63
2022/05/09 07:46:13;;;;;;;;;;;17.90;99.90;;;;;;5093848;28;20394;-63
2022/05/09 07:48:40;;;;;;;;;;;17.80;99.90;;;;;;5093372;28;19973;-63
2022/05/09 07:51:05;;;;;;;;;;;18.00;99.90;;;;;;5093733;28;19924;-65
2022/05/09 07:53:32;;;;;;;;;;;18.50;99.90;;;;;;5093507;28;20486;-64
2022/05/09 07:55:58;;;;;;;;;;;18.80;99.90;;;;;;5093316;28;19928;-64
2022/05/09 07:58:24;;;;;;;;;;;18.90;99.90;;;;;;5093576;28;20366;-63
2022/05/09 08:00:49;;;;;;;;;;;18.90;99.90;;;;;;5093013;28;20028;-64
2022/05/09 08:03:20;;;;;;;;;;;19.50;99.90;;;;;;5093627;28;19920;-64
2022/05/09 08:05:46;;;;;;;;;;;19.80;99.90;;;;;;5093355;28;19946;-64
2022/05/09 08:08:12;;;;;;;;;;;20.00;99.90;;;;;;5093080;28;19924;-64
2022/05/09 08:10:38;;;;;;;;;;;20.20;99.90;;;;;;5093639;28;20342;-63
2022/05/09 08:13:04;;;;;;;;;;;20.50;99.90;;;;;;5093148;28;19931;-64
2022/05/09 08:15:31;;;;;;;;;;;20.60;99.90;;;;;;5093006;28;19920;-64
2022/05/09 08:17:58;;;;;;;;;;;20.90;99.90;;;;;;5093165;28;19920;-63
2022/05/09 08:20:24;;;;;;;;;;;21.40;99.90;;;;;;5092119;28;19921;-62
2022/05/09 08:22:58;;;;;;;;;;;21.40;99.90;;;;;;5092160;28;19965;-63
2022/05/09 08:25:24;;;;;;;;;;;21.60;99.00;;;;;;5092613;28;19927;-62
2022/05/09 08:27:50;;;;;;;;;;;21.40;98.60;;;;;;5092585;28;19920;-63
2022/05/09 08:30:18;;;;;;;;;;;21.70;99.10;;;;;;5092307;28;20450;-63
2022/05/09 08:32:44;;;;;;;;;;;21.80;98.80;;;;;;5092170;28;19927;-63
2022/05/09 08:35:10;;;;;;;;;;;22.00;97.60;;;;;;5095420;28;19924;-64
2022/05/09 08:37:36;;;;;;;;;;;22.00;98.00;;;;;;5095607;28;20490;-64
2022/05/09 08:40:02;;;;;;;;;;;22.30;97.70;;;;;;5095782;28;20022;-64
2022/05/09 08:42:47;;;;;;;;;;;22.70;96.90;;;;;;5095609;28;19924;-64
2022/05/09 08:45:15;;;;;;;;;;;22.60;95.80;;;;;;5095658;28;19924;-64
2022/05/09 08:47:49;;;;;;;;;;;23.10;96.40;;;;;;5095028;28;19920;-65
2022/05/09 08:50:24;;;;;;;;;;;23.00;94.60;;;;;;5095433;28;19920;-64
2022/05/09 08:52:53;;;;;;;;;;;23.10;94.50;;;;;;5095338;28;19920;-64
2022/05/09 08:55:23;;;;;;;;;;;23.10;94.80;;;;;;5095392;28;19920;-64
2022/05/09 08:57:54;;;;;;;;;;;23.50;95.30;;;;;;5095551;28;20282;-66
2022/05/09 09:00:20;;;;;;;;;;;23.70;93.90;;;;;;5076190;28;19920;-64
2022/05/09 09:02:49;;;;;;;;;;;24.00;94.20;;;;;;5095357;28;19969;-64
2022/05/09 09:05:22;;;;;;;;;;;23.90;94.60;;;;;;5095193;28;19920;-64
2022/05/09 09:07:58;;;;;;;;;;;24.20;92.50;;;;;;5095218;28;19924;-65
2022/05/09 09:10:43;;;;;;;;;;;24.20;92.50;;;;;;5094810;28;20023;-64
2022/05/09 09:13:34;;;;;;;;;;;24.30;92.80;;;;;;5094950;28;19924;-64
2022/05/09 09:16:12;;;;;;;;;;;24.40;92.00;;;;;;5089866;28;19927;-63
2022/05/09 09:18:56;;;;;;;;;;;24.90;92.80;;;;;;5094796;28;20469;-64
2022/05/09 09:21:37;;;;;;;;;;;24.70;90.60;;;;;;5094306;28;20015;-64
2022/05/09 09:24:05;;;;;;;;;;;24.90;91.40;;;;;;5094473;28;19950;-63
2022/05/09 09:26:35;;;;;;;;;;;24.60;91.50;;;;;;5094431;28;19920;-63
2022/05/09 09:29:13;;;;;;;;;;;24.80;91.20;;;;;;5094770;28;19920;-64
2022/05/09 09:31:43;;;;;;;;;;;24.40;90.20;;;;;;5094237;28;19920;-63
2022/05/09 09:34:27;;;;;;;;;;;24.70;91.30;;;;;;5094159;28;19924;-64
2022/05/09 09:37:13;;;;;;;;;;;24.70;87.80;;;;;;5093745;28;20135;-64
2022/05/09 09:39:39;;;;;;;;;;;24.40;89.00;;;;;;5076339;28;19924;-63
2022/05/09 09:42:05;;;;;;;;;;;24.60;87.20;;;;;;5094346;28;19924;-63
2022/05/09 09:44:34;;;;;;;;;;;24.60;88.90;;;;;;5094540;28;19943;-61
2022/05/09 09:47:02;;;;;;;;;;;24.90;87.70;;;;;;5094205;28;20007;-61
2022/05/09 09:49:28;;;;;;;;;;;25.00;87.40;;;;;;5094123;28;19920;-60
2022/05/09 09:51:53;;;;;;;;;;;25.00;83.00;;;;;;5093995;28;19930;-60
2022/05/09 09:54:21;;;;;;;;;;;24.50;81.80;;;;;;5093858;28;20307;-60
2022/05/09 09:56:47;;;;;;;;;;;24.40;84.50;;;;;;5093978;28;20778;-60
2022/05/09 09:59:13;;;;;;;;;;;24.50;81.90;;;;;;5093971;28;19989;-60
2022/05/09 10:01:38;;;;;;;;;;;24.40;81.50;;;;;;5093544;28;19920;-60
2022/05/09 10:04:06;;;;;;;;;;;24.50;83.60;;;;;;5093713;28;20013;-60
2022/05/09 10:06:32;;;;;;;;;;;24.40;81.10;;;;;;5093556;28;19924;-60
2022/05/09 10:09:06;;;;;;;;;;;24.60;83.40;;;;;;5093480;28;19962;-59
2022/05/09 10:11:32;;;;;;;;;;;24.90;79.10;;;;;;5093333;28;19928;-60
2022/05/09 10:13:59;;;;;;;;;;;24.80;79.10;;;;;;5093386;28;19931;-61
2022/05/09 10:16:27;;;;;;;;;;;24.70;82.40;;;;;;5093628;28;19965;-60
2022/05/09 10:18:53;;;;;;;;;;;24.70;80.50;;;;;;5093386;28;19920;-60
2022/05/09 10:26:55;;;;;;;;;;;24.80;80.30;;;;;;5093223;28;19926;-61
2022/05/09 10:29:22;;;;;;;;;;;24.90;77.60;;;;;;5093206;28;20394;-61
2022/05/09 10:31:55;;;;;;;;;;;24.70;78.10;;;;;;5093197;28;19966;-61
2022/05/09 10:34:26;;;;;;;;;;;24.80;80.50;;;;;;5092707;28;20352;-61
2022/05/09 10:37:03;;;;;;;;;;;24.70;79.70;;;;;;5092863;28;20393;-61
2022/05/09 10:39:32;;;;;;;;;;;24.40;77.60;;;;;;5093164;28;20043;-61
2022/05/09 10:41:59;;;;;;;;;;;24.50;77.40;;;;;;5092815;28;19926;-61
2022/05/09 10:44:29;;;;;;;;;;;24.40;78.00;;;;;;5092801;28;20015;-61
2022/05/09 10:47:08;;;;;;;;;;;24.20;77.30;;;;;;5074794;28;19942;-61
2022/05/09 10:49:52;;;;;;;;;;;24.70;80.60;;;;;;5092800;28;19955;-61
2022/05/09 10:52:39;;;;;;;;;;;24.60;78.00;;;;;;5092637;28;20374;-61
2022/05/09 10:55:19;;;;;;;;;;;24.80;78.90;;;;;;5092245;28;19931;-61
2022/05/09 10:57:51;;;;;;;;;;;24.40;79.40;;;;;;5092606;28;19989;-61
2022/05/09 11:00:24;;;;;;;;;;;24.40;80.80;;;;;;5074452;28;19920;-61
2022/05/09 11:03:34;;;;;;;;;;;24.80;81.70;;;;;;5092366;28;20298;-61
2022/05/09 11:06:16;;;;;;;;;;;25.00;79.80;;;;;;4990528;28;19921;-61
2022/05/09 11:08:58;;;;;;;;;;;24.90;79.50;;;;;;4990537;28;19930;-61
2022/05/09 11:11:42;;;;;;;;;;;24.90;81.60;;;;;;4990554;28;19922;-61
2022/05/09 11:14:14;;;;;;;;;;;24.80;78.90;;;;;;4990805;28;19929;-60
2022/05/09 11:16:58;;;;;;;;;;;24.70;77.50;;;;;;4990627;28;19983;-61
2022/05/09 11:19:35;;;;;;;;;;;25.10;81.30;;;;;;4990787;28;19930;-60
2022/05/09 11:22:04;;;;;;;;;;;25.10;79.90;;;;;;4990599;28;19922;-61
2022/05/09 11:24:47;;;;;;;;;;;25.40;81.00;;;;;;4990529;28;20025;-61
2022/05/09 11:27:31;;;;;;;;;;;25.30;78.00;;;;;;4990568;28;20040;-61
2022/05/09 11:30:15;;;;;;;;;;;25.50;77.60;;;;;;4990543;28;20435;-61
2022/05/09 11:32:46;;;;;;;;;;;25.20;78.80;;;;;;4990716;28;19932;-61
2022/05/09 11:35:25;;;;;;;;;;;25.50;81.30;;;;;;4990375;28;19926;-62
2022/05/09 11:37:54;;;;;;;;;;;25.60;77.90;;;;;;5091032;28;20379;-61
2022/05/09 11:40:21;;;;;;;;;;;25.70;79.50;;;;;;5091989;28;19920;-61
2022/05/09 11:46:02;;;;;;;;;;;25.50;77.90;;;;;;5092177;28;19920;-61
2022/05/09 11:48:46;;;;;;;;;;;25.70;79.00;;;;;;5092146;28;20376;-61
2022/05/09 11:51:14;;;;;;;;;;;25.80;79.00;;;;;;5092039;28;19971;-61
2022/05/09 11:53:42;;;;;;;;;;;25.90;80.70;;;;;;5092000;28;19928;-62
2022/05/09 11:56:08;;;;;;;;;;;25.90;79.80;;;;;;5092213;28;19935;-61
2022/05/09 11:58:36;;;;;;;;;;;26.30;80.20;;;;;;5073456;28;19920;-61
2022/05/09 12:01:02;;;;;;;;;;;25.80;78.70;;;;;;5092304;28;19928;-61
2022/05/09 12:03:39;;;;;;;;;;;25.80;78.40;;;;;;5091984;28;20011;-61
2022/05/09 12:06:06;;;;;;;;;;;25.60;78.70;;;;;;5091747;28;19978;-61
2022/05/09 12:08:41;;;;;;;;;;;25.60;77.50;;;;;;5093567;28;19920;-61
2022/05/09 12:11:27;;;;;;;;;;;25.80;77.50;;;;;;5095766;28;19927;-61
2022/05/09 12:13:54;;;;;;;;;;;25.80;77.50;;;;;;4993786;28;19969;-62
2022/05/09 12:16:35;;;;;;;;;;;25.70;75.80;;;;;;4993845;28;19922;-61
2022/05/09 12:19:03;;;;;;;;;;;26.00;76.10;;;;;;4993890;28;19928;-61
2022/05/09 12:21:32;;;;;;;;;;;26.30;77.70;;;;;;4993759;28;19922;-61
2022/05/09 12:24:10;;;;;;;;;;;26.60;76.10;;;;;;4993905;28;19977;-61
2022/05/09 12:26:36;;;;;;;;;;;26.40;75.30;;;;;;4994072;28;20541;-61
2022/05/09 12:29:06;;;;;;;;;;;26.40;76.00;;;;;;4993898;28;19934;-61
2022/05/09 12:31:48;;;;;;;;;;;26.30;74.30;;;;;;4993580;28;19968;-62
2022/05/09 12:34:15;;;;;;;;;;;26.10;75.20;;;;;;4993674;28;20300;-61
2022/05/09 12:36:42;;;;;;;;;;;26.10;74.00;;;;;;4993570;28;19933;-61
2022/05/09 12:39:09;;;;;;;;;;;26.50;78.20;;;;;;4993500;28;20284;-60
2022/05/09 12:41:42;;;;;;;;;;;26.60;78.30;;;;;;4993400;28;19933;-61
2022/05/09 12:44:13;;;;;;;;;;;26.30;74.70;;;;;;4993339;28;19929;-60
2022/05/09 12:46:44;;;;;;;;;;;26.60;76.60;;;;;;4993457;28;20012;-61
2022/05/09 12:49:10;;;;;;;;;;;26.50;76.90;;;;;;4977387;28;19953;-61
2022/05/09 12:51:44;;;;;;;;;;;26.50;75.10;;;;;;5070874;28;19920;-61
2022/05/09 12:54:11;;;;;;;;;;;26.20;74.20;;;;;;5094833;28;20036;-62
2022/05/09 12:56:44;;;;;;;;;;;26.20;76.60;;;;;;5076945;28;20405;-61
2022/05/09 12:59:11;;;;;;;;;;;26.20;74.70;;;;;;5095027;28;20286;-61
2022/05/09 13:01:41;;;;;;;;;;;26.50;76.90;;;;;;5094795;28;19927;-61
2022/05/09 13:04:16;;;;;;;;;;;26.50;77.70;;;;;;5094540;28;19920;-61
2022/05/09 13:06:46;;;;;;;;;;;27.00;79.00;;;;;;5094916;28;20018;-62
2022/05/09 13:09:16;;;;;;;;;;;27.00;75.40;;;;;;5094777;28;20289;-61
2022/05/09 13:11:46;;;;;;;;;;;27.10;76.60;;;;;;5094661;28;19946;-61
2022/05/09 13:14:15;;;;;;;;;;;26.90;76.70;;;;;;5094749;28;20013;-61
2022/05/09 13:16:50;;;;;;;;;;;26.90;73.50;;;;;;5094389;28;19925;-61
2022/05/09 13:19:15;;;;;;;;;;;26.50;73.50;;;;;;5094309;28;19926;-61
2022/05/09 13:21:42;;;;;;;;;;;26.60;74.90;;;;;;5094646;28;20010;-61
2022/05/09 13:24:13;;;;;;;;;;;26.70;73.20;;;;;;5094468;28;19920;-61
2022/05/09 13:26:45;;;;;;;;;;;26.60;75.10;;;;;;5094192;28;20431;-61
2022/05/09 13:29:10;;;;;;;;;;;26.70;76.60;;;;;;5094181;28;19955;-61
2022/05/09 13:31:41;;;;;;;;;;;26.50;74.20;;;;;;5094001;28;20401;-61
2022/05/09 13:34:16;;;;;;;;;;;26.10;73.10;;;;;;5094303;28;19926;-62
2022/05/09 13:36:41;;;;;;;;;;;26.20;75.50;;;;;;5094032;28;20378;-61
2022/05/09 13:39:07;;;;;;;;;;;26.20;74.50;;;;;;5094037;28;19927;-62
2022/05/09 13:41:35;;;;;;;;;;;26.20;76.10;;;;;;5094026;28;19974;-62
2022/05/09 13:44:01;;;;;;;;;;;26.50;75.90;;;;;;5093754;28;19970;-61
2022/05/09 13:46:31;;;;;;;;;;;26.40;75.30;;;;;;5094124;28;19924;-62
2022/05/09 13:48:58;;;;;;;;;;;26.30;74.20;;;;;;5093851;28;19920;-62
2022/05/09 13:51:36;;;;;;;;;;;26.50;72.40;;;;;;5075704;28;19920;-60
2022/05/09 13:54:04;;;;;;;;;;;26.50;73.70;;;;;;5093673;28;19934;-61
2022/05/09 13:56:31;;;;;;;;;;;26.30;73.40;;;;;;5093614;28;19928;-61
2022/05/09 13:58:59;;;;;;;;;;;26.20;75.60;;;;;;5075417;28;20309;-61
2022/05/09 14:01:26;;;;;;;;;;;26.30;76.50;;;;;;5075631;28;19955;-61
2022/05/09 14:03:53;;;;;;;;;;;26.20;74.00;;;;;;5093825;28;20362;-60
2022/05/09 14:06:20;;;;;;;;;;;26.20;75.80;;;;;;5093824;28;19920;-60
2022/05/09 14:08:48;;;;;;;;;;;26.40;77.30;;;;;;5093606;28;20022;-61
2022/05/09 14:11:13;;;;;;;;;;;26.40;75.60;;;;;;5093463;28;20522;-60
2022/05/09 14:13:39;;;;;;;;;;;26.70;75.90;;;;;;5074836;28;19920;-60
2022/05/09 14:16:17;;;;;;;;;;;26.70;75.30;;;;;;5093393;28;19928;-60
2022/05/09 14:18:43;;;;;;;;;;;26.20;73.60;;;;;;5093325;28;19924;-61
2022/05/09 14:21:13;;;;;;;;;;;26.50;76.50;;;;;;5093559;28;19967;-61
2022/05/09 14:23:38;;;;;;;;;;;26.20;74.60;;;;;;5092950;28;20412;-62
2022/05/09 14:31:54;;;;;;;;;;;26.20;74.60;;;;;;5092228;28;19927;-60
2022/05/09 14:34:23;;;;;;;;;;;26.60;74.70;;;;;;5093128;28;19923;-61
2022/05/09 14:36:49;;;;;;;;;;;26.40;73.00;;;;;;5093140;28;20332;-60
2022/05/09 14:39:29;;;;;;;;;;;26.40;72.10;;;;;;5093150;28;20011;-61
2022/05/09 14:42:10;;;;;;;;;;;26.30;72.10;;;;;;5058212;28;19970;-60
2022/05/09 14:44:38;;;;;;;;;;;26.20;75.50;;;;;;5074527;28;20026;-60
2022/05/09 14:47:07;;;;;;;;;;;26.30;76.00;;;;;;5092869;28;19945;-61
2022/05/09 14:49:42;;;;;;;;;;;26.20;71.90;;;;;;5092899;28;19924;-61
2022/05/09 14:52:17;;;;;;;;;;;26.10;73.30;;;;;;5092639;28;19924;-61